Time;durP1;ratioP1;P1;durP2;ratioP2;P2;SDS_P1;SDS_P2;PMS_P1;PMS_P2;Temp;Humidity;BMP_temperature;BMP_pressure;BME280_temperature;BME280_humidity;BME280_pressure;Samples;Min_cycle;Max_cycle;Signal;HPM_P1;HPM_P2
2023/09/16 00:02:08;;;;;;;19.70;18.00;;;;;;;17.92;81.21;97801.03;5084586;28;20465;-81
2023/09/16 00:04:35;;;;;;;17.47;16.10;;;;;;;17.97;81.02;97806.56;5076511;28;20556;-81
2023/09/16 00:07:02;;;;;;;18.40;16.80;;;;;;;17.95;80.84;97811.47;5079294;28;20541;-81
2023/09/16 00:09:29;;;;;;;17.97;16.40;;;;;;;17.91;80.95;97810.31;5081966;28;20926;-81
2023/09/16 00:11:56;;;;;;;15.43;14.27;;;;;;;17.99;80.53;97812.63;5075513;28;20814;-81
2023/09/16 00:14:24;;;;;;;18.23;16.83;;;;;;;17.98;80.81;97810.97;5086362;28;20533;-81
2023/09/16 00:16:55;;;;;;;17.80;16.40;;;;;;;18.12;80.09;97806.75;5083342;28;21046;-81
2023/09/16 00:19:23;;;;;;;22.00;20.30;;;;;;;17.99;80.53;97812.63;5084409;28;20470;-81
2023/09/16 00:21:50;;;;;;;18.77;17.27;;;;;;;17.91;80.73;97804.84;5076277;28;20457;-82
2023/09/16 00:24:18;;;;;;;17.63;16.13;;;;;;;18.02;80.78;97805.81;5083471;28;20561;-81
2023/09/16 00:26:45;;;;;;;19.03;17.33;;;;;;;18.02;80.63;97809.38;5077407;28;20461;-81
2023/09/16 00:29:11;;;;;;;19.27;17.50;;;;;;;18.05;80.52;97805.28;5079170;28;20477;-81
2023/09/16 00:31:39;;;;;;;19.40;17.73;;;;;;;18.01;80.31;97804.97;5079735;28;20531;-82
2023/09/16 00:34:07;;;;;;;21.27;19.47;;;;;;;17.93;80.66;97807.31;5076152;28;20462;-82
2023/09/16 00:36:33;;;;;;;18.17;16.77;;;;;;;17.93;80.82;97802.69;5086585;28;20460;-81
2023/09/16 00:39:00;;;;;;;19.77;18.17;;;;;;;17.95;80.66;97802.41;5080811;28;20525;-81
2023/09/16 00:41:27;;;;;;;17.63;16.13;;;;;;;17.94;80.57;97809.81;5081588;28;20560;-81
2023/09/16 00:43:54;;;;;;;21.30;19.50;;;;;;;17.88;80.91;97805.34;5083038;28;20832;-82
2023/09/16 00:46:21;;;;;;;19.63;18.03;;;;;;;17.82;81.41;97802.81;5083277;28;20545;-82
2023/09/16 00:48:48;;;;;;;19.50;17.93;;;;;;;17.79;81.13;97802.25;5076055;28;20802;-81
2023/09/16 00:51:16;;;;;;;18.77;17.30;;;;;;;17.84;81.32;97798.75;5083654;28;20485;-81
2023/09/16 00:53:44;;;;;;;19.37;17.73;;;;;;;17.78;81.32;97806.06;5085097;28;20548;-81
2023/09/16 00:56:11;;;;;;;20.27;18.60;;;;;;;17.77;81.41;97809.06;5077704;28;20454;-81
2023/09/16 00:58:38;;;;;;;19.87;18.27;;;;;;;17.72;81.60;97811.72;5086895;28;20537;-82
2023/09/16 01:01:05;;;;;;;20.53;18.83;;;;;;;17.49;82.52;97801.81;5080279;28;20578;-81
2023/09/16 01:03:35;;;;;;;21.03;19.40;;;;;;;17.51;82.51;97802.38;5081349;28;20484;-82
2023/09/16 01:06:03;;;;;;;19.70;18.20;;;;;;;17.39;83.16;97797.00;5083887;28;20489;-81
2023/09/16 01:08:34;;;;;;;19.33;17.77;;;;;;;17.43;82.92;97798.16;5085331;28;20888;-81
2023/09/16 01:11:02;;;;;;;19.67;18.10;;;;;;;17.28;83.55;97808.88;5080984;28;20565;-81
2023/09/16 01:13:29;;;;;;;20.00;18.40;;;;;;;17.39;83.27;97813.44;5091351;28;20450;-82
2023/09/16 01:16:00;;;;;;;21.73;20.00;;;;;;;17.29;83.80;97806.97;5081704;28;20533;-82
2023/09/16 01:18:30;;;;;;;19.87;18.27;;;;;;;17.40;83.08;97806.88;5089552;28;20560;-82
2023/09/16 01:20:58;;;;;;;20.63;18.93;;;;;;;17.31;83.34;97805.63;5082659;28;20454;-81
2023/09/16 01:23:25;;;;;;;20.53;18.83;;;;;;;17.24;83.97;97804.16;5092757;28;20437;-81
2023/09/16 01:25:53;;;;;;;19.07;17.40;;;;;;;16.98;85.28;97806.50;5088375;28;20453;-81
2023/09/16 01:28:22;;;;;;;20.70;19.00;;;;;;;17.14;84.28;97799.38;5083386;28;20863;-81
2023/09/16 01:30:50;;;;;;;19.60;17.90;;;;;;;17.09;84.48;97802.03;5086937;28;20652;-81
2023/09/16 01:33:19;;;;;;;21.00;19.17;;;;;;;17.09;84.40;97807.50;5087098;28;20460;-82
2023/09/16 01:35:46;;;;;;;21.23;19.50;;;;;;;17.08;84.61;97800.38;5079976;28;20450;-82
2023/09/16 01:38:15;;;;;;;21.33;19.43;;;;;;;17.09;84.75;97800.13;5086762;28;20537;-80
2023/09/16 01:40:44;;;;;;;20.83;19.03;;;;;;;16.92;85.28;97792.97;5085946;28;20956;-81
2023/09/16 01:43:12;;;;;;;21.73;19.93;;;;;;;16.95;85.57;97801.53;5086639;28;20870;-82
2023/09/16 01:45:42;;;;;;;21.97;20.17;;;;;;;17.00;85.32;97800.78;5085329;28;20552;-82
2023/09/16 01:48:10;;;;;;;22.87;20.90;;;;;;;17.03;85.28;97798.38;5084710;28;20532;-81
2023/09/16 01:50:36;;;;;;;23.33;21.10;;;;;;;17.06;84.96;97799.78;5087528;28;20506;-81
2023/09/16 01:53:06;;;;;;;23.23;21.23;;;;;;;17.05;85.17;97801.69;5085851;28;20474;-81
2023/09/16 01:55:33;;;;;;;23.87;21.70;;;;;;;17.03;85.16;97812.06;5086865;28;20489;-82
2023/09/16 01:58:00;;;;;;;22.67;20.70;;;;;;;16.92;85.77;97807.47;5087941;28;20455;-81
2023/09/16 02:00:28;;;;;;;22.37;20.37;;;;;;;16.78;86.30;97800.69;5087004;28;20481;-81
2023/09/16 02:02:55;;;;;;;23.30;21.30;;;;;;;16.70;86.85;97801.09;5084344;28;20821;-81
2023/09/16 02:05:22;;;;;;;21.00;19.30;;;;;;;16.76;86.87;97803.69;5087681;28;20469;-81
2023/09/16 02:07:49;;;;;;;23.47;21.40;;;;;;;16.85;86.43;97801.38;5083110;28;20964;-82
2023/09/16 02:10:16;;;;;;;22.40;20.43;;;;;;;16.96;85.96;97811.38;5080925;28;20449;-81
2023/09/16 02:12:43;;;;;;;22.07;20.00;;;;;;;16.89;85.94;97802.53;5085632;28;20459;-81
2023/09/16 02:15:10;;;;;;;23.93;21.80;;;;;;;16.78;86.41;97812.47;5085727;28;20466;-81
2023/09/16 02:17:40;;;;;;;22.90;20.97;;;;;;;16.78;86.43;97808.91;5085092;28;20533;-81
2023/09/16 02:20:09;;;;;;;24.10;22.03;;;;;;;16.71;86.62;97817.25;5086174;28;20455;-81
2023/09/16 02:22:36;;;;;;;27.23;24.73;;;;;;;16.54;87.37;97819.13;5089175;28;20450;-81
2023/09/16 02:25:03;;;;;;;25.00;22.90;;;;;;;16.53;87.69;97820.19;5076066;28;20558;-81
2023/09/16 02:27:30;;;;;;;24.80;22.70;;;;;;;16.55;87.53;97818.03;5084816;28;20593;-81
2023/09/16 02:29:57;;;;;;;27.03;24.50;;;;;;;16.59;87.17;97821.91;5077477;28;20854;-81
2023/09/16 02:32:24;;;;;;;27.23;24.83;;;;;;;16.54;87.36;97824.59;5089184;28;20572;-81
2023/09/16 02:34:52;;;;;;;27.53;25.03;;;;;;;16.44;87.56;97827.13;5077864;28;20466;-80
2023/09/16 02:37:18;;;;;;;26.63;24.20;;;;;;;16.44;87.37;97827.13;5085875;28;20465;-81
2023/09/16 02:39:45;;;;;;;30.60;27.40;;;;;;;16.34;88.21;97829.66;5080640;28;21048;-81
2023/09/16 02:42:12;;;;;;;31.33;28.40;;;;;;;16.13;88.80;97834.72;5079727;28;20486;-80
2023/09/16 02:44:39;;;;;;;31.00;28.20;;;;;;;16.09;89.88;97840.91;5086165;28;20569;-81
2023/09/16 02:47:06;;;;;;;29.67;27.00;;;;;;;16.10;89.59;97837.94;5077173;28;20457;-81
2023/09/16 02:49:33;;;;;;;31.83;28.93;;;;;;;16.15;89.52;97830.94;5081300;28;21081;-81
2023/09/16 02:52:01;;;;;;;30.87;27.90;;;;;;;16.07;90.02;97827.50;5082702;28;21193;-81
2023/09/16 02:54:28;;;;;;;33.20;30.10;;;;;;;16.04;90.23;97829.88;5086788;28;20473;-82
2023/09/16 02:56:55;;;;;;;27.10;24.70;;;;;;;15.84;91.31;97835.75;5086252;28;20454;-81
2023/09/16 02:59:21;;;;;;;27.60;25.20;;;;;;;16.08;90.31;97831.06;5079242;28;20562;-80
2023/09/16 03:01:48;;;;;;;29.37;26.70;;;;;;;15.98;90.55;97831.69;5086610;28;20449;-82
2023/09/16 03:04:15;;;;;;;28.70;26.13;;;;;;;15.96;90.94;97825.63;5071115;28;20462;-81
2023/09/16 03:06:42;;;;;;;29.00;26.30;;;;;;;16.01;90.59;97828.47;5085333;28;20480;-81
2023/09/16 03:09:10;;;;;;;28.47;25.87;;;;;;;15.98;90.83;97826.22;5082991;28;20494;-80
2023/09/16 03:11:37;;;;;;;27.10;24.70;;;;;;;16.08;90.25;97823.69;5075782;28;20525;-80
2023/09/16 03:14:04;;;;;;;28.37;25.77;;;;;;;16.06;90.10;97831.31;5069534;28;20477;-80
2023/09/16 03:16:32;;;;;;;30.60;27.50;;;;;;;15.99;90.12;97830.59;5082756;28;20459;-81
2023/09/16 03:18:58;;;;;;;26.03;23.83;;;;;;;16.01;90.51;97828.47;5090603;28;20515;-80
2023/09/16 03:21:26;;;;;;;29.30;26.80;;;;;;;15.95;90.34;97823.97;5087777;28;20445;-81
2023/09/16 03:23:52;;;;;;;28.27;25.57;;;;;;;15.88;90.87;97839.69;5080598;28;20561;-80
2023/09/16 03:26:21;;;;;;;29.93;27.27;;;;;;;15.71;91.27;97823.19;5082950;28;20487;-80
2023/09/16 03:28:47;;;;;;;27.03;24.60;;;;;;;15.64;92.16;97821.66;5081628;28;20948;-80
2023/09/16 03:31:15;;;;;;;27.50;25.00;;;;;;;15.59;92.41;97821.59;5073289;28;21067;-80
2023/09/16 03:33:41;;;;;;;27.10;24.70;;;;;;;15.63;91.51;97820.84;5086018;28;20542;-81
2023/09/16 03:36:08;;;;;;;25.27;23.07;;;;;;;15.48;91.82;97819.66;5086086;28;20560;-81
2023/09/16 03:38:36;;;;;;;25.00;22.80;;;;;;;15.57;91.41;97813.63;5082811;28;20449;-80
2023/09/16 03:41:03;;;;;;;24.40;22.10;;;;;;;15.54;91.38;97811.34;5083359;28;20502;-80
2023/09/16 03:43:31;;;;;;;23.13;21.10;;;;;;;15.57;91.18;97815.53;5085766;28;20484;-80
2023/09/16 03:45:58;;;;;;;23.10;21.10;;;;;;;15.50;91.15;97809.34;5075535;28;20566;-81
2023/09/16 03:48:25;;;;;;;22.53;20.53;;;;;;;15.49;91.01;97813.13;5085507;28;20460;-80
2023/09/16 03:50:51;;;;;;;21.83;20.00;;;;;;;15.49;91.09;97805.78;5083409;28;20879;-80
2023/09/16 03:53:21;;;;;;;21.10;19.40;;;;;;;15.50;91.17;97815.63;5086127;28;20568;-80
2023/09/16 03:55:48;;;;;;;19.07;17.40;;;;;;;15.51;90.56;97828.19;5085780;28;20586;-80
2023/09/16 03:58:15;;;;;;;20.40;18.70;;;;;;;15.19;91.73;97814.09;5081926;28;21006;-80
2023/09/16 04:00:43;;;;;;;19.87;18.27;;;;;;;15.27;91.19;97808.28;5077313;28;20541;-80
2023/09/16 04:03:10;;;;;;;18.73;17.13;;;;;;;15.12;91.67;97805.22;5079019;28;20487;-80
2023/09/16 04:05:37;;;;;;;19.40;17.77;;;;;;;15.25;91.57;97794.06;5087719;28;20453;-80
2023/09/16 04:08:04;;;;;;;17.67;16.17;;;;;;;15.26;91.11;97792.19;5084123;28;20480;-80
2023/09/16 04:10:31;;;;;;;18.83;17.23;;;;;;;15.18;91.20;97790.63;5084624;28;20457;-80
2023/09/16 04:12:58;;;;;;;17.40;15.90;;;;;;;15.11;91.96;97789.91;5087276;28;20530;-80
2023/09/16 04:15:25;;;;;;;18.97;17.37;;;;;;;15.22;91.50;97780.91;5085377;28;21557;-81
2023/09/16 04:17:53;;;;;;;19.03;17.53;;;;;;;15.07;91.72;97786.00;5082792;28;20460;-80
2023/09/16 04:20:20;;;;;;;18.20;16.80;;;;;;;15.10;91.80;97778.19;5079588;28;20453;-80
2023/09/16 04:22:47;;;;;;;16.73;15.43;;;;;;;15.17;91.86;97783.53;5087799;28;20472;-80
2023/09/16 04:25:14;;;;;;;16.47;15.10;;;;;;;15.14;91.34;97786.72;5085535;28;21533;-80
2023/09/16 04:27:40;;;;;;;20.53;18.80;;;;;;;15.13;91.33;97791.34;5084010;28;20577;-80
2023/09/16 04:30:08;;;;;;;19.53;17.93;;;;;;;15.17;91.17;97799.06;5084127;28;20581;-80
2023/09/16 04:32:35;;;;;;;18.40;16.90;;;;;;;15.13;90.74;97798.69;5084340;28;20872;-80
2023/09/16 04:35:04;;;;;;;18.40;16.93;;;;;;;15.03;91.39;97795.72;5085503;28;20570;-80
2023/09/16 04:37:31;;;;;;;20.57;18.87;;;;;;;14.90;91.82;97799.53;5072355;28;20459;-79
2023/09/16 04:39:58;;;;;;;18.40;16.80;;;;;;;14.83;92.42;97796.06;5085339;28;20866;-80
2023/09/16 04:42:30;;;;;;;20.27;18.47;;;;;;;14.99;91.44;97786.34;5086751;28;20448;-80
2023/09/16 04:44:58;;;;;;;20.43;18.77;;;;;;;15.03;91.03;97790.25;5085672;28;20555;-80
2023/09/16 04:47:26;;;;;;;21.83;20.03;;;;;;;14.92;90.83;97785.66;5078132;28;20552;-80
2023/09/16 04:49:52;;;;;;;21.27;19.37;;;;;;;14.95;90.91;97796.06;5086444;28;20484;-79
2023/09/16 04:52:21;;;;;;;19.83;18.03;;;;;;;14.79;91.81;97792.16;5086935;28;20517;-80
2023/09/16 04:54:47;;;;;;;18.83;17.13;;;;;;;14.81;92.21;97783.75;5080270;28;20532;-79
2023/09/16 04:57:14;;;;;;;20.83;19.03;;;;;;;14.63;92.33;97780.03;5080872;28;20464;-80
2023/09/16 04:59:43;;;;;;;19.97;18.27;;;;;;;14.74;92.36;97778.41;5079552;28;20513;-79
2023/09/16 05:02:10;;;;;;;20.47;18.47;;;;;;;14.81;92.19;97779.13;5082802;28;20460;-79
2023/09/16 05:04:36;;;;;;;19.13;17.53;;;;;;;14.85;92.32;97774.03;5086824;28;21171;-79
2023/09/16 05:07:04;;;;;;;18.13;16.70;;;;;;;14.84;92.53;97766.94;5086688;28;20492;-79
2023/09/16 05:09:32;;;;;;;21.47;19.57;;;;;;;14.79;92.60;97771.19;5084610;28;20464;-79
2023/09/16 05:11:59;;;;;;;18.63;17.13;;;;;;;14.87;92.59;97772.75;5073653;28;20570;-79
2023/09/16 05:14:26;;;;;;;19.67;17.87;;;;;;;14.82;92.72;97775.34;5077482;28;20487;-79
2023/09/16 05:16:53;;;;;;;16.13;14.93;;;;;;;14.84;92.10;97775.09;5085539;28;20470;-79
2023/09/16 05:19:20;;;;;;;17.93;16.40;;;;;;;14.91;92.65;97768.47;5073878;28;20460;-79
2023/09/16 05:21:46;;;;;;;20.27;18.57;;;;;;;14.81;92.56;97778.28;5084526;28;20988;-79
2023/09/16 05:24:13;;;;;;;20.30;18.70;;;;;;;14.75;92.93;97770.00;5080883;28;20476;-79
2023/09/16 05:26:41;;;;;;;19.53;17.87;;;;;;;14.74;92.94;97773.78;5074395;28;20455;-78
2023/09/16 05:29:08;;;;;;;20.63;18.93;;;;;;;14.68;93.13;97758.38;5069436;28;20540;-78
2023/09/16 05:31:35;;;;;;;23.00;21.00;;;;;;;14.72;93.09;97775.06;5065863;28;20589;-81
2023/09/16 05:34:02;;;;;;;19.20;17.60;;;;;;;14.78;92.90;97769.53;5084002;28;20483;-76
2023/09/16 05:36:29;;;;;;;21.10;19.40;;;;;;;14.73;93.16;97774.84;5080872;28;20464;-80
2023/09/16 05:38:56;;;;;;;22.87;20.67;;;;;;;14.72;93.46;97775.06;5079434;28;20502;-75
2023/09/16 05:41:23;;;;;;;24.17;22.10;;;;;;;14.67;93.86;97767.59;5080991;28;20451;-79
2023/09/16 05:43:51;;;;;;;25.17;22.93;;;;;;;14.76;93.47;97766.19;5082312;28;20538;-79
2023/09/16 05:46:18;;;;;;;24.10;22.10;;;;;;;14.70;93.80;97764.41;5077309;28;20486;-79
2023/09/16 05:48:45;;;;;;;26.10;23.80;;;;;;;14.68;94.12;97769.28;5080343;28;20462;-79
2023/09/16 05:51:12;;;;;;;25.50;23.03;;;;;;;14.81;94.21;97770.13;5084078;28;20464;-78
2023/09/16 05:53:39;;;;;;;23.83;21.87;;;;;;;14.97;93.54;97762.06;5081944;28;20531;-79
2023/09/16 05:56:08;;;;;;;23.73;21.63;;;;;;;15.35;92.47;97780.66;5086092;28;20473;-80
2023/09/16 05:58:35;;;;;;;22.50;20.50;;;;;;;15.74;90.30;97772.78;5087117;28;20482;-79
2023/09/16 06:01:04;;;;;;;24.13;22.03;;;;;;;16.03;88.65;97774.44;5082003;28;20540;-79
2023/09/16 06:03:30;;;;;;;20.60;18.90;;;;;;;16.30;87.45;97782.88;5073024;28;22672;-80
2023/09/16 06:05:58;;;;;;;21.30;19.60;;;;;;;16.37;86.63;97763.59;5084862;28;20952;-80
2023/09/16 06:08:25;;;;;;;21.33;19.53;;;;;;;16.55;85.23;97779.78;5082670;28;20782;-79
2023/09/16 06:10:52;;;;;;;17.33;15.93;;;;;;;16.63;84.92;97770.34;5083223;28;20449;-79
2023/09/16 06:13:19;;;;;;;19.83;18.13;;;;;;;17.01;83.56;97777.81;5081671;28;20559;-79
2023/09/16 06:15:46;;;;;;;17.80;16.40;;;;;;;17.21;81.91;97775.41;5084055;28;20465;-78
2023/09/16 06:18:14;;;;;;;16.97;15.60;;;;;;;17.49;81.04;97773.63;5065865;28;20489;-75
2023/09/16 06:20:42;;;;;;;17.63;16.30;;;;;;;17.74;79.48;97776.72;5072951;28;20571;-75
2023/09/16 06:23:08;;;;;;;16.93;15.63;;;;;;;18.02;78.01;97779.25;5082933;28;20469;-76
2023/09/16 06:25:35;;;;;;;16.20;14.90;;;;;;;18.40;77.20;97785.69;5075469;28;20761;-76
2023/09/16 06:28:03;;;;;;;14.90;13.77;;;;;;;18.94;74.52;97777.41;5079327;28;20974;-76
2023/09/16 06:30:30;;;;;;;14.80;13.70;;;;;;;19.42;72.24;97779.13;5086428;28;20470;-75
2023/09/16 06:32:58;;;;;;;15.20;14.00;;;;;;;19.65;71.52;97786.97;5086535;28;20828;-75
2023/09/16 06:35:26;;;;;;;14.23;13.13;;;;;;;19.93;70.47;97788.47;5082294;28;20548;-75
2023/09/16 06:37:53;;;;;;;14.37;13.23;;;;;;;20.00;69.82;97780.81;5073545;28;20931;-70
2023/09/16 06:40:20;;;;;;;15.63;14.30;;;;;;;19.83;69.91;97755.47;5071413;28;20541;-73
2023/09/16 06:42:47;;;;;;;15.47;14.27;;;;;;;20.01;70.00;97776.97;5076219;28;20848;-74
2023/09/16 06:45:14;;;;;;;14.17;13.17;;;;;;;20.58;67.90;97789.78;5082464;28;20498;-74
2023/09/16 06:47:40;;;;;;;15.30;14.10;;;;;;;20.98;67.26;97786.25;5082045;28;20943;-74
2023/09/16 06:50:09;;;;;;;13.87;12.90;;;;;;;21.23;65.32;97785.44;5088295;28;20452;-74
2023/09/16 06:52:37;;;;;;;13.63;12.53;;;;;;;21.96;63.06;97783.06;5083537;28;20973;-73
2023/09/16 06:55:04;;;;;;;14.50;13.47;;;;;;;21.65;64.25;97776.81;5079135;28;20560;-81
2023/09/16 06:57:32;;;;;;;14.30;13.30;;;;;;;21.72;63.11;97771.03;5083916;28;20465;-74
2023/09/16 06:59:58;;;;;;;13.83;12.83;;;;;;;21.65;64.32;97776.00;5076966;28;20461;-75
2023/09/16 07:02:25;;;;;;;14.10;13.10;;;;;;;21.99;62.95;97770.63;5068572;28;20461;-74
2023/09/16 07:04:55;;;;;;;14.67;13.60;;;;;;;21.53;63.89;97772.72;5063575;28;20472;-74
2023/09/16 07:07:23;;;;;;;14.83;13.70;;;;;;;21.54;64.81;97774.38;5069108;28;20461;-74
2023/09/16 07:09:53;;;;;;;14.83;13.73;;;;;;;21.54;64.28;97772.44;5069386;28;20451;-74
2023/09/16 07:12:20;;;;;;;14.20;13.20;;;;;;;22.15;62.96;97763.97;5076777;28;20511;-74
2023/09/16 07:14:47;;;;;;;13.50;12.50;;;;;;;22.75;61.35;97773.78;5063318;28;20559;-74
2023/09/16 07:17:14;;;;;;;13.90;12.90;;;;;;;22.91;60.22;97782.00;5073016;28;20485;-75
2023/09/16 07:19:41;;;;;;;13.60;12.70;;;;;;;23.39;58.80;97781.00;5070277;28;20470;-75
2023/09/16 07:22:08;;;;;;;14.30;13.30;;;;;;;23.03;59.42;97783.28;5083301;28;21025;-77
2023/09/16 07:24:35;;;;;;;13.73;12.73;;;;;;;23.19;59.15;97788.66;5080856;28;22273;-79
2023/09/16 07:27:04;;;;;;;14.07;13.07;;;;;;;23.12;59.53;97778.75;5069161;28;20465;-80
2023/09/16 07:29:31;;;;;;;14.53;13.53;;;;;;;23.73;58.07;97774.59;5073779;28;20458;-78
2023/09/16 07:31:57;;;;;;;13.80;12.80;;;;;;;24.15;56.96;97781.28;5069559;28;20463;-77
2023/09/16 07:34:25;;;;;;;13.57;12.67;;;;;;;24.12;56.24;97780.75;5070446;28;21063;-76
2023/09/16 07:36:52;;;;;;;13.70;12.80;;;;;;;23.97;56.95;97778.19;5059863;28;20460;-74
2023/09/16 07:39:19;;;;;;;13.83;12.83;;;;;;;23.76;57.15;97755.47;5067134;28;20465;-73
2023/09/16 07:41:46;;;;;;;12.00;11.20;;;;;;;24.79;55.01;97777.91;5055045;28;20460;-77
2023/09/16 07:44:14;;;;;;;13.37;12.40;;;;;;;24.72;55.00;97778.28;5053314;28;20573;-77
2023/09/16 07:46:41;;;;;;;14.27;13.27;;;;;;;24.60;55.14;97775.16;5072429;28;20489;-78
2023/09/16 07:49:08;;;;;;;14.53;13.43;;;;;;;23.90;57.43;97772.19;5077336;28;20461;-76
2023/09/16 07:51:35;;;;;;;13.97;12.80;;;;;;;24.79;55.14;97778.72;5085525;28;20487;-76
2023/09/16 07:54:02;;;;;;;13.80;12.80;;;;;;;25.03;54.37;97775.06;5085010;28;20511;-77
2023/09/16 07:56:29;;;;;;;13.20;12.30;;;;;;;24.89;54.87;97782.47;5069544;28;20458;-76
2023/09/16 07:58:56;;;;;;;14.37;13.07;;;;;;;24.76;55.10;97789.56;5076399;28;20461;-76
2023/09/16 08:01:24;;;;;;;13.50;12.50;;;;;;;25.01;54.55;97785.63;5080155;28;20465;-77
2023/09/16 08:03:51;;;;;;;10.90;10.20;;;;;;;25.58;53.08;97786.28;5083340;28;21071;-76
2023/09/16 08:06:18;;;;;;;14.03;12.93;;;;;;;25.78;52.29;97789.53;5060008;28;20556;-77
2023/09/16 08:08:45;;;;;;;11.60;10.70;;;;;;;25.96;52.08;97796.13;5074359;28;20454;-77
2023/09/16 08:11:12;;;;;;;12.47;11.57;;;;;;;25.37;53.58;97800.50;5072273;28;22245;-76
2023/09/16 08:13:39;;;;;;;12.40;11.50;;;;;;;25.83;52.03;97799.69;5066838;28;20494;-76
2023/09/16 08:16:06;;;;;;;12.20;11.30;;;;;;;25.87;52.42;97800.72;5072599;28;20538;-78
2023/09/16 08:18:34;;;;;;;12.17;11.37;;;;;;;26.35;50.79;97797.53;5072648;28;21115;-78
2023/09/16 08:21:01;;;;;;;10.17;9.47;;;;;;;27.04;49.51;97799.03;5077599;28;20521;-77
2023/09/16 08:23:27;;;;;;;11.13;10.40;;;;;;;27.05;48.90;97799.84;5071282;28;20478;-78
2023/09/16 08:25:54;;;;;;;11.27;10.47;;;;;;;27.28;48.62;97797.91;5063958;28;21244;-79
2023/09/16 08:28:21;;;;;;;10.83;10.03;;;;;;;27.08;48.19;97793.66;5066858;28;21039;-79
2023/09/16 08:30:48;;;;;;;11.40;10.60;;;;;;;27.13;48.49;97798.28;5060895;28;20581;-79
2023/09/16 08:33:15;;;;;;;10.87;10.13;;;;;;;27.65;47.03;97799.47;5072165;28;20482;-79
2023/09/16 08:35:43;;;;;;;11.60;10.80;;;;;;;27.14;47.52;97814.66;5076987;28;20577;-79
2023/09/16 08:38:10;;;;;;;9.90;9.30;;;;;;;27.05;47.90;97819.31;5078029;28;20445;-78
2023/09/16 08:40:37;;;;;;;10.80;10.10;;;;;;;27.48;47.23;97816.03;5076789;28;20492;-77
2023/09/16 08:43:14;;;;;;;10.13;9.43;;;;;;;27.95;45.76;97817.28;5076092;28;20538;-80
2023/09/16 08:45:44;;;;;;;10.80;10.10;;;;;;;28.48;44.22;97808.81;5080944;28;21179;-73
2023/09/16 08:48:14;;;;;;;10.47;9.87;;;;;;;28.77;43.15;97806.25;5073865;28;20489;-80
2023/09/16 08:50:43;;;;;;;11.60;10.90;;;;;;;28.68;43.07;97810.97;5072576;28;20532;-78
2023/09/16 08:53:12;;;;;;;11.43;10.67;;;;;;;28.43;44.30;97814.53;5072811;28;20587;-79
2023/09/16 08:55:39;;;;;;;11.47;10.67;;;;;;;28.34;44.10;97813.69;5081841;28;20446;-79
2023/09/16 08:58:08;;;;;;;9.43;8.83;;;;;;;29.23;43.05;97815.13;5073388;28;20472;-79
2023/09/16 09:00:36;;;;;;;9.30;8.70;;;;;;;29.75;41.33;97824.25;5083333;28;20933;-78
2023/09/16 09:03:03;;;;;;;10.40;9.70;;;;;;;29.94;40.83;97821.06;5081468;28;20500;-79
2023/09/16 09:05:30;;;;;;;10.53;9.83;;;;;;;30.03;40.83;97822.72;5083936;28;20465;-79
2023/09/16 09:07:59;;;;;;;9.30;8.70;;;;;;;30.47;39.56;97817.75;5053883;28;20446;-79
2023/09/16 09:10:26;;;;;;;7.50;7.00;;;;;;;30.90;38.78;97830.63;5067722;28;20627;-80
2023/09/16 09:12:53;;;;;;;8.60;8.10;;;;;;;30.90;37.96;97819.44;5069657;28;20496;-79
2023/09/16 09:15:20;;;;;;;8.07;7.57;;;;;;;31.29;37.63;97821.78;5081245;28;20489;-79
2023/09/16 09:17:51;;;;;;;10.00;9.40;;;;;;;31.35;37.22;97820.41;5070598;28;20476;-78
2023/09/16 09:20:19;;;;;;;9.20;8.47;;;;;;;31.72;37.41;97818.59;5075178;28;26307;-79
2023/09/16 09:22:47;;;;;;;8.60;8.00;;;;;;;31.45;36.96;97819.19;5081433;28;20474;-82
2023/09/16 09:25:15;;;;;;;7.73;7.13;;;;;;;30.69;37.85;97813.84;5075041;28;20873;-87
2023/09/16 09:27:42;;;;;;;6.83;6.33;;;;;;;30.63;37.20;97806.81;5079312;28;20673;-79
2023/09/16 09:30:10;;;;;;;7.07;6.67;;;;;;;31.17;37.28;97801.34;5071110;28;20606;-78
2023/09/16 09:32:37;;;;;;;7.97;7.47;;;;;;;31.40;37.04;97800.63;5080863;28;20564;-75
2023/09/16 09:35:08;;;;;;;5.90;5.57;;;;;;;31.66;36.43;97797.53;5073822;28;20872;-75
2023/09/16 09:37:35;;;;;;;7.67;7.17;;;;;;;31.50;36.88;97806.97;5066273;28;20966;-74
2023/09/16 09:40:09;;;;;;;7.50;6.90;;;;;;;31.63;35.95;97803.84;5080196;28;20446;-75
2023/09/16 09:42:42;;;;;;;6.50;6.03;;;;;;;31.85;35.97;97797.03;5074313;28;20508;-76
2023/09/16 09:45:09;;;;;;;6.40;6.00;;;;;;;32.14;35.93;97798.00;5075660;28;20485;-78
2023/09/16 09:47:37;;;;;;;5.80;5.40;;;;;;;32.90;33.97;97802.88;5075260;28;20481;-75
2023/09/16 09:50:05;;;;;;;5.40;5.00;;;;;;;32.40;35.01;97804.09;5065192;28;20461;-77
2023/09/16 09:52:32;;;;;;;5.20;4.90;;;;;;;33.04;34.13;97795.72;5077836;28;20478;-80
2023/09/16 09:55:00;;;;;;;6.97;6.47;;;;;;;32.81;33.96;97802.22;5070047;28;20482;-78
2023/09/16 09:57:28;;;;;;;6.73;6.33;;;;;;;31.66;35.62;97813.53;5060261;28;20461;-81
2023/09/16 14:51:51;;;;;;;2.90;2.80;;;;;;;30.95;34.50;97637.50;5072026;27;20588;-80
2023/09/16 14:54:19;;;;;;;3.00;2.80;;;;;;;31.15;33.71;97642.28;5079358;28;20549;-80
2023/09/16 14:56:47;;;;;;;2.80;2.60;;;;;;;31.43;33.48;97636.84;5075468;28;20555;-80
2023/09/16 14:59:13;;;;;;;3.40;3.10;;;;;;;31.08;33.68;97636.41;5071579;28;20983;-80
2023/09/16 15:01:41;;;;;;;3.10;2.90;;;;;;;31.02;34.00;97633.00;5083779;28;20456;-80
2023/09/16 15:04:07;;;;;;;3.30;3.10;;;;;;;31.10;34.41;97627.66;5084515;28;20473;-80
2023/09/16 15:06:35;;;;;;;4.50;3.00;;;;;;;31.03;35.88;97639.41;5080973;28;20531;-81
2023/09/16 15:09:03;;;;;;;3.57;3.37;;;;;;;30.71;35.99;97639.06;5080968;28;21168;-80
2023/09/16 15:11:30;;;;;;;2.93;2.83;;;;;;;30.23;36.87;97644.38;5080324;28;20485;-81
2023/09/16 15:13:57;;;;;;;3.30;3.10;;;;;;;30.31;37.32;97641.53;5080445;28;20445;-78
2023/09/16 15:16:24;;;;;;;3.50;3.30;;;;;;;30.65;36.02;97640.44;5072386;28;20476;-79
2023/09/16 15:18:52;;;;;;;3.40;3.20;;;;;;;30.47;36.51;97638.94;5066467;28;20456;-80
2023/09/16 15:21:19;;;;;;;4.00;3.17;;;;;;;30.87;35.78;97638.41;5081121;28;20473;-79
2023/09/16 15:23:46;;;;;;;3.07;2.87;;;;;;;31.16;34.89;97649.50;5075665;28;20489;-78
2023/09/16 15:26:14;;;;;;;3.00;2.80;;;;;;;31.38;34.53;97640.66;5072814;28;20473;-80
2023/09/16 15:28:41;;;;;;;3.23;3.00;;;;;;;31.44;35.28;97640.44;5070564;28;20549;-80
2023/09/16 15:31:08;;;;;;;3.27;3.07;;;;;;;32.18;33.41;97634.47;5076223;28;20848;-79
2023/09/16 15:33:35;;;;;;;3.40;3.20;;;;;;;32.16;33.58;97636.00;5071405;28;20454;-80
2023/09/16 15:36:02;;;;;;;2.80;2.60;;;;;;;33.28;31.02;97631.28;5075370;28;20481;-80
2023/09/16 15:38:29;;;;;;;2.93;2.73;;;;;;;33.77;30.66;97642.16;5076627;28;20522;-80
2023/09/16 15:41:00;;;;;;;3.20;3.00;;;;;;;34.40;29.63;97637.25;5080730;28;20449;-80
2023/09/16 15:43:28;;;;;;;3.27;3.07;;;;;;;34.29;30.52;97636.16;5072459;28;20508;-78
2023/09/16 15:45:57;;;;;;;3.23;3.03;;;;;;;34.32;29.98;97641.06;5076478;28;20481;-77
2023/09/16 15:48:25;;;;;;;2.80;2.60;;;;;;;34.31;29.09;97634.66;5058225;28;20481;-77
2023/09/16 15:50:52;;;;;;;2.50;2.40;;;;;;;33.56;29.54;97637.63;5073435;28;20477;-77
2023/09/16 15:53:20;;;;;;;2.70;2.50;;;;;;;33.48;30.09;97635.78;5065191;28;20473;-84
2023/09/16 15:55:49;;;;;;;2.77;2.57;;;;;;;33.23;31.23;97635.13;5074010;28;20531;-78
2023/09/16 15:58:16;;;;;;;2.97;2.80;;;;;;;32.80;31.35;97633.16;5074749;28;20445;-77
2023/09/16 16:00:49;;;;;;;2.60;2.50;;;;;;;32.93;31.18;97634.72;5075516;28;20833;-77
2023/09/16 16:03:17;;;;;;;2.73;2.63;;;;;;;32.44;31.13;97636.91;5067505;28;20829;-79
2023/09/16 16:05:44;;;;;;;2.70;2.50;;;;;;;32.61;30.95;97633.78;5045719;28;20490;-79
2023/09/16 16:08:13;;;;;;;2.50;2.30;;;;;;;32.08;31.62;97612.56;5054186;28;20458;-80
2023/09/16 16:10:40;;;;;;;2.97;2.70;;;;;;;31.89;32.32;97643.16;5066087;28;20470;-78
2023/09/16 16:13:07;;;;;;;3.20;2.97;;;;;;;31.30;33.37;97644.38;5066856;28;20557;-78
2023/09/16 16:15:33;;;;;;;3.00;2.80;;;;;;;31.11;33.74;97624.53;5064437;28;20470;-79